PWSweather.com
Personal Weather Stations
Station Observations
PENICUIKWS
PenicuikGB

PenicuikGB

Lat: 55.830932, Lon: -3.224533000000065

Elevation: 166

Station Type: Fine Offset

http://weather.penicuik.org

High Low Average
Temperature 59.0°F15.0°C 38.1°F3.4°C 48.1°F8.9°C
Dew Point 43.8°F6.6°C 36.0°F2.2°C 40.4°F4.7°C
Winds 6.0 mph 9.7 kmh Calm Calm 2.0 mph SE3.2 kmh SE
Wind Gusts 6.0 mph9.7 kmh -- 2.0 mph3.2 kmh
Humidity 92% 53% 76%
Pressure 30.24 in1024.0 mb 29.99 in1015.6 mb -
Precipitation 0.01 in0.3 mm - -
Hour Temp Dew Point Humidity Winds Wind Gusts Pressure Precip Precip Rate Daily Precip Total
12:29 AM 48.7°F9.3°C 43.8°F6.6°C 83% 1.6 mph E2.6 kmh E 1.6 mph2.6 kmh 30.00 in1015.9 mb 0.00 in0.0 mm 0.00 in0.0 mm 0.01 in0.3 mm
12:59 AM 48.2°F9.0°C 43.3°F6.3°C 83% 1.6 mph N2.6 kmh N 1.6 mph2.6 kmh 30.01 in1016.3 mb 0.00 in0.0 mm 0.00 in0.0 mm 0.01 in0.3 mm
01:29 AM 48.2°F9.0°C 43.3°F6.3°C 83% 3.1 mph SSW5.0 kmh SSW 3.1 mph5.0 kmh 30.02 in1016.6 mb 0.00 in0.0 mm 0.00 in0.0 mm 0.01 in0.3 mm
01:59 AM 47.7°F8.7°C 43.4°F6.3°C 85% 1.6 mph WNW2.6 kmh WNW 1.6 mph2.6 kmh 30.02 in1016.6 mb 0.00 in0.0 mm 0.00 in0.0 mm 0.01 in0.3 mm
02:29 AM 48.0°F8.9°C 43.7°F6.5°C 85% 1.6 mph E2.6 kmh E 1.6 mph2.6 kmh 30.01 in1016.3 mb 0.00 in0.0 mm 0.00 in0.0 mm 0.01 in0.3 mm
02:59 AM 48.2°F9.0°C 43.0°F6.1°C 82% 4.5 mph NW7.2 kmh NW 4.5 mph7.2 kmh 30.01 in1016.3 mb 0.00 in0.0 mm 0.00 in0.0 mm 0.01 in0.3 mm
03:29 AM 46.9°F8.3°C 42.4°F5.8°C 84% 3.8 mph WNW6.1 kmh WNW 3.8 mph6.1 kmh 30.01 in1016.3 mb 0.00 in0.0 mm 0.00 in0.0 mm 0.01 in0.3 mm
03:59 AM 47.1°F8.4°C 42.5°F5.8°C 84% Calm Calm -- 29.99 in1015.6 mb 0.00 in0.0 mm 0.00 in0.0 mm 0.01 in0.3 mm
04:29 AM 46.0°F7.8°C 40.2°F4.6°C 80% 6.0 mph NW9.7 kmh NW 6.0 mph9.7 kmh 29.99 in1015.6 mb 0.00 in0.0 mm 0.00 in0.0 mm 0.01 in0.3 mm
04:59 AM 44.6°F7.0°C 39.1°F3.9°C 81% 1.6 mph W2.6 kmh W 1.6 mph2.6 kmh 30.00 in1015.9 mb 0.00 in0.0 mm 0.00 in0.0 mm 0.01 in0.3 mm
05:29 AM 43.3°F6.3°C 39.4°F4.1°C 86% 1.6 mph WNW2.6 kmh WNW 1.6 mph2.6 kmh 30.00 in1015.9 mb 0.00 in0.0 mm 0.00 in0.0 mm 0.01 in0.3 mm
05:59 AM 43.5°F6.4°C 40.5°F4.7°C 89% 2.2 mph SE3.5 kmh SE 2.2 mph3.5 kmh 30.00 in1015.9 mb 0.00 in0.0 mm 0.00 in0.0 mm 0.01 in0.3 mm
06:29 AM 45.0°F7.2°C 41.6°F5.3°C 88% 2.2 mph W3.5 kmh W 2.2 mph3.5 kmh 30.00 in1015.9 mb 0.00 in0.0 mm 0.00 in0.0 mm 0.01 in0.3 mm
06:59 AM 45.7°F7.6°C 42.0°F5.6°C 87% 2.2 mph W3.5 kmh W 2.2 mph3.5 kmh 30.01 in1016.3 mb 0.00 in0.0 mm 0.00 in0.0 mm 0.01 in0.3 mm
07:29 AM 47.1°F8.4°C 43.1°F6.2°C 86% 1.6 mph SE2.6 kmh SE 1.6 mph2.6 kmh 30.01 in1016.3 mb 0.00 in0.0 mm 0.00 in0.0 mm 0.01 in0.3 mm
07:59 AM 48.9°F9.4°C 43.7°F6.5°C 82% 1.6 mph W2.6 kmh W 1.6 mph2.6 kmh 30.01 in1016.3 mb 0.00 in0.0 mm 0.00 in0.0 mm 0.01 in0.3 mm
08:29 AM 52.2°F11.2°C 43.0°F6.1°C 71% 1.6 mph S2.6 kmh S 1.6 mph2.6 kmh 30.01 in1016.3 mb 0.00 in0.0 mm 0.00 in0.0 mm 0.01 in0.3 mm
08:59 AM 50.0°F10.0°C 41.3°F5.2°C 72% 3.1 mph SSW5.0 kmh SSW 3.1 mph5.0 kmh 30.01 in1016.3 mb 0.00 in0.0 mm 0.00 in0.0 mm 0.01 in0.3 mm
09:29 AM 50.0°F10.0°C 41.3°F5.2°C 72% 3.1 mph SSE5.0 kmh SSE 3.1 mph5.0 kmh 30.01 in1016.3 mb 0.00 in0.0 mm 0.00 in0.0 mm 0.01 in0.3 mm
09:59 AM 51.1°F10.6°C 42.0°F5.6°C 71% 3.1 mph SW5.0 kmh SW 3.1 mph5.0 kmh 30.01 in1016.3 mb 0.00 in0.0 mm 0.00 in0.0 mm 0.01 in0.3 mm
10:29 AM 50.9°F10.5°C 41.5°F5.3°C 70% 1.6 mph E2.6 kmh E 1.6 mph2.6 kmh 30.02 in1016.6 mb 0.00 in0.0 mm 0.00 in0.0 mm 0.01 in0.3 mm
10:59 AM 54.7°F12.6°C 42.3°F5.7°C 63% 3.8 mph N6.1 kmh N 3.8 mph6.1 kmh 30.01 in1016.3 mb 0.00 in0.0 mm 0.00 in0.0 mm 0.01 in0.3 mm
11:29 AM 54.0°F12.2°C 41.6°F5.3°C 63% 3.1 mph N5.0 kmh N 3.1 mph5.0 kmh 30.01 in1016.3 mb 0.00 in0.0 mm 0.00 in0.0 mm 0.01 in0.3 mm
11:59 AM 59.0°F15.0°C 42.4°F5.8°C 54% 3.8 mph S6.1 kmh S 3.8 mph6.1 kmh 30.01 in1016.3 mb 0.00 in0.0 mm 0.00 in0.0 mm 0.01 in0.3 mm
12:29 PM 57.2°F14.0°C 40.2°F4.6°C 53% 3.8 mph SE6.1 kmh SE 3.8 mph6.1 kmh 30.01 in1016.3 mb 0.00 in0.0 mm 0.00 in0.0 mm 0.01 in0.3 mm
12:59 PM 54.9°F12.7°C 41.2°F5.1°C 60% 0.7 mph N1.1 kmh N 0.7 mph1.1 kmh 30.01 in1016.3 mb 0.00 in0.0 mm 0.00 in0.0 mm 0.01 in0.3 mm
01:29 PM 54.7°F12.6°C 41.1°F5.1°C 60% 2.2 mph SE3.5 kmh SE 2.2 mph3.5 kmh 30.01 in1016.3 mb 0.00 in0.0 mm 0.00 in0.0 mm 0.01 in0.3 mm
01:59 PM 54.7°F12.6°C 40.2°F4.6°C 58% 6.0 mph NW9.7 kmh NW 6.0 mph9.7 kmh 30.01 in1016.3 mb 0.00 in0.0 mm 0.00 in0.0 mm 0.01 in0.3 mm
02:29 PM 56.3°F13.5°C 40.3°F4.6°C 55% 1.6 mph SW2.6 kmh SW 1.6 mph2.6 kmh 30.01 in1016.3 mb 0.00 in0.0 mm 0.00 in0.0 mm 0.01 in0.3 mm
02:59 PM 54.1°F12.3°C 40.1°F4.5°C 59% 3.8 mph S6.1 kmh S 3.8 mph6.1 kmh 30.02 in1016.6 mb 0.00 in0.0 mm 0.00 in0.0 mm 0.01 in0.3 mm
03:29 PM 54.5°F12.5°C 41.3°F5.2°C 61% 3.1 mph SE5.0 kmh SE 3.1 mph5.0 kmh 30.02 in1016.6 mb 0.00 in0.0 mm 0.00 in0.0 mm 0.01 in0.3 mm
03:59 PM 51.4°F10.8°C 39.3°F4.1°C 63% 3.8 mph N6.1 kmh N 3.8 mph6.1 kmh 30.03 in1016.9 mb 0.00 in0.0 mm 0.00 in0.0 mm 0.01 in0.3 mm
04:29 PM 51.1°F10.6°C 39.3°F4.1°C 64% 2.2 mph NNE3.5 kmh NNE 2.2 mph3.5 kmh 30.04 in1017.3 mb 0.00 in0.0 mm 0.00 in0.0 mm 0.01 in0.3 mm
04:59 PM 49.3°F9.6°C 39.2°F4.0°C 68% 0.7 mph E1.1 kmh E 0.7 mph1.1 kmh 30.05 in1017.6 mb 0.00 in0.0 mm 0.00 in0.0 mm 0.01 in0.3 mm
05:29 PM 48.6°F9.2°C 39.6°F4.2°C 71% 1.6 mph W2.6 kmh W 1.6 mph2.6 kmh 30.07 in1018.3 mb 0.00 in0.0 mm 0.00 in0.0 mm 0.01 in0.3 mm
05:59 PM 47.8°F8.8°C 39.2°F4.0°C 72% 5.4 mph NNE8.7 kmh NNE 5.4 mph8.7 kmh 30.08 in1018.6 mb 0.00 in0.0 mm 0.00 in0.0 mm 0.01 in0.3 mm
06:29 PM 46.4°F8.0°C 38.6°F3.7°C 74% 0.7 mph S1.1 kmh S 0.7 mph1.1 kmh 30.11 in1019.6 mb 0.00 in0.0 mm 0.00 in0.0 mm 0.01 in0.3 mm
06:59 PM 46.2°F7.9°C 38.7°F3.7°C 75% Calm Calm -- 30.12 in1020.0 mb 0.00 in0.0 mm 0.00 in0.0 mm 0.01 in0.3 mm
07:29 PM 45.7°F7.6°C 38.9°F3.8°C 77% 0.7 mph N1.1 kmh N 0.7 mph1.1 kmh 30.14 in1020.7 mb 0.00 in0.0 mm 0.00 in0.0 mm 0.01 in0.3 mm
07:59 PM 44.2°F6.8°C 38.1°F3.4°C 79% Calm Calm -- 30.16 in1021.3 mb 0.00 in0.0 mm 0.00 in0.0 mm 0.01 in0.3 mm
08:29 PM 43.7°F6.5°C 37.9°F3.3°C 80% Calm Calm -- 30.17 in1021.7 mb 0.00 in0.0 mm 0.00 in0.0 mm 0.01 in0.3 mm
08:59 PM 42.1°F5.6°C 37.0°F2.8°C 82% 0.7 mph N1.1 kmh N 0.7 mph1.1 kmh 30.19 in1022.4 mb 0.00 in0.0 mm 0.00 in0.0 mm 0.01 in0.3 mm
09:29 PM 41.2°F5.1°C 36.7°F2.6°C 84% 0.7 mph S1.1 kmh S 0.7 mph1.1 kmh 30.20 in1022.7 mb 0.00 in0.0 mm 0.00 in0.0 mm 0.01 in0.3 mm
09:59 PM 40.8°F4.9°C 37.5°F3.1°C 88% 0.7 mph N1.1 kmh N 0.7 mph1.1 kmh 30.21 in1023.0 mb 0.00 in0.0 mm 0.00 in0.0 mm 0.01 in0.3 mm
10:29 PM 40.1°F4.5°C 37.1°F2.8°C 89% 0.7 mph SW1.1 kmh SW 0.7 mph1.1 kmh 30.22 in1023.4 mb 0.00 in0.0 mm 0.00 in0.0 mm 0.01 in0.3 mm
10:59 PM 39.6°F4.2°C 36.6°F2.6°C 89% Calm Calm -- 30.24 in1024.0 mb 0.00 in0.0 mm 0.00 in0.0 mm 0.01 in0.3 mm
11:29 PM 38.8°F3.8°C 36.7°F2.6°C 92% Calm Calm -- 30.24 in1024.0 mb 0.00 in0.0 mm 0.00 in0.0 mm 0.00 in0.0 mm
11:59 PM 38.1°F3.4°C 36.0°F2.2°C 92% 1.6 mph SW2.6 kmh SW 1.6 mph2.6 kmh 30.24 in1024.0 mb 0.00 in0.0 mm 0.00 in0.0 mm 0.00 in0.0 mm